sensor_id;sensor_type;location;lat;lon;timestamp;P1;durP1;ratioP1;P2;durP2;ratioP2
10116;SDS011;5098;48.792;9.012;2023-02-08T00:01:31;15.25;;;7.75;;
10116;SDS011;5098;48.792;9.012;2023-02-08T00:03:57;10.35;;;7.88;;
10116;SDS011;5098;48.792;9.012;2023-02-08T00:06:23;15.18;;;8.00;;
10116;SDS011;5098;48.792;9.012;2023-02-08T00:08:49;10.88;;;7.63;;
10116;SDS011;5098;48.792;9.012;2023-02-08T00:11:15;12.10;;;8.45;;
10116;SDS011;5098;48.792;9.012;2023-02-08T00:13:41;13.02;;;8.20;;
10116;SDS011;5098;48.792;9.012;2023-02-08T00:16:07;11.10;;;8.70;;
10116;SDS011;5098;48.792;9.012;2023-02-08T00:18:34;9.98;;;7.38;;
10116;SDS011;5098;48.792;9.012;2023-02-08T00:21:00;10.98;;;7.35;;
10116;SDS011;5098;48.792;9.012;2023-02-08T00:23:26;14.20;;;8.63;;
10116;SDS011;5098;48.792;9.012;2023-02-08T00:25:52;13.85;;;9.25;;
10116;SDS011;5098;48.792;9.012;2023-02-08T00:28:18;10.52;;;8.40;;
10116;SDS011;5098;48.792;9.012;2023-02-08T00:30:44;12.68;;;8.30;;
10116;SDS011;5098;48.792;9.012;2023-02-08T00:33:10;11.75;;;8.40;;
10116;SDS011;5098;48.792;9.012;2023-02-08T00:35:37;11.32;;;8.77;;
10116;SDS011;5098;48.792;9.012;2023-02-08T00:38:03;15.55;;;8.80;;
10116;SDS011;5098;48.792;9.012;2023-02-08T00:40:29;11.85;;;8.05;;
10116;SDS011;5098;48.792;9.012;2023-02-08T00:42:55;13.35;;;8.88;;
10116;SDS011;5098;48.792;9.012;2023-02-08T00:45:21;12.23;;;9.75;;
10116;SDS011;5098;48.792;9.012;2023-02-08T00:47:47;12.93;;;9.23;;
10116;SDS011;5098;48.792;9.012;2023-02-08T00:50:14;13.05;;;8.70;;
10116;SDS011;5098;48.792;9.012;2023-02-08T00:52:40;11.85;;;9.60;;
10116;SDS011;5098;48.792;9.012;2023-02-08T00:55:06;13.75;;;10.27;;
10116;SDS011;5098;48.792;9.012;2023-02-08T00:57:33;17.38;;;9.52;;
10116;SDS011;5098;48.792;9.012;2023-02-08T00:59:59;12.10;;;9.65;;
10116;SDS011;5098;48.792;9.012;2023-02-08T01:02:25;14.15;;;9.75;;
10116;SDS011;5098;48.792;9.012;2023-02-08T01:04:51;13.63;;;9.70;;
10116;SDS011;5098;48.792;9.012;2023-02-08T01:07:17;13.98;;;9.45;;
10116;SDS011;5098;48.792;9.012;2023-02-08T01:09:43;12.93;;;9.10;;
10116;SDS011;5098;48.792;9.012;2023-02-08T01:12:09;15.00;;;9.57;;
10116;SDS011;5098;48.792;9.012;2023-02-08T01:14:36;15.15;;;10.25;;
10116;SDS011;5098;48.792;9.012;2023-02-08T01:17:02;16.02;;;10.30;;
10116;SDS011;5098;48.792;9.012;2023-02-08T01:19:28;17.35;;;9.88;;
10116;SDS011;5098;48.792;9.012;2023-02-08T01:21:54;15.35;;;9.20;;
10116;SDS011;5098;48.792;9.012;2023-02-08T01:24:21;12.85;;;8.75;;
10116;SDS011;5098;48.792;9.012;2023-02-08T01:26:47;17.13;;;10.55;;
10116;SDS011;5098;48.792;9.012;2023-02-08T01:29:13;12.75;;;9.45;;
10116;SDS011;5098;48.792;9.012;2023-02-08T01:31:40;13.38;;;8.55;;
10116;SDS011;5098;48.792;9.012;2023-02-08T01:34:06;15.45;;;9.98;;
10116;SDS011;5098;48.792;9.012;2023-02-08T01:36:33;12.73;;;9.10;;
10116;SDS011;5098;48.792;9.012;2023-02-08T01:38:59;15.55;;;10.18;;
10116;SDS011;5098;48.792;9.012;2023-02-08T01:41:27;18.02;;;11.57;;
10116;SDS011;5098;48.792;9.012;2023-02-08T01:46:22;13.88;;;10.15;;
10116;SDS011;5098;48.792;9.012;2023-02-08T01:48:48;13.38;;;10.35;;
10116;SDS011;5098;48.792;9.012;2023-02-08T01:51:17;14.43;;;10.13;;
10116;SDS011;5098;48.792;9.012;2023-02-08T01:53:44;19.48;;;11.82;;
10116;SDS011;5098;48.792;9.012;2023-02-08T01:56:11;13.80;;;9.57;;
10116;SDS011;5098;48.792;9.012;2023-02-08T01:58:43;16.60;;;8.88;;
10116;SDS011;5098;48.792;9.012;2023-02-08T02:01:10;11.75;;;9.52;;
10116;SDS011;5098;48.792;9.012;2023-02-08T02:03:36;14.15;;;9.02;;
10116;SDS011;5098;48.792;9.012;2023-02-08T02:06:05;13.30;;;9.27;;
10116;SDS011;5098;48.792;9.012;2023-02-08T02:08:32;13.27;;;8.95;;
10116;SDS011;5098;48.792;9.012;2023-02-08T02:10:58;13.82;;;9.75;;
10116;SDS011;5098;48.792;9.012;2023-02-08T02:13:25;12.35;;;9.43;;
10116;SDS011;5098;48.792;9.012;2023-02-08T02:15:51;15.77;;;10.38;;
10116;SDS011;5098;48.792;9.012;2023-02-08T02:18:24;16.00;;;9.57;;
10116;SDS011;5098;48.792;9.012;2023-02-08T02:25:51;15.65;;;9.90;;
10116;SDS011;5098;48.792;9.012;2023-02-08T02:36:17;12.43;;;9.00;;
10116;SDS011;5098;48.792;9.012;2023-02-08T02:39:02;11.80;;;8.63;;
10116;SDS011;5098;48.792;9.012;2023-02-08T02:41:50;14.45;;;8.57;;
10116;SDS011;5098;48.792;9.012;2023-02-08T02:44:41;15.88;;;8.73;;
10116;SDS011;5098;48.792;9.012;2023-02-08T02:47:16;12.27;;;9.55;;
10116;SDS011;5098;48.792;9.012;2023-02-08T02:49:46;12.98;;;9.15;;
10116;SDS011;5098;48.792;9.012;2023-02-08T02:52:30;15.70;;;9.70;;
10116;SDS011;5098;48.792;9.012;2023-02-08T02:55:02;11.70;;;7.88;;
10116;SDS011;5098;48.792;9.012;2023-02-08T02:57:31;15.10;;;8.98;;
10116;SDS011;5098;48.792;9.012;2023-02-08T02:59:57;13.23;;;8.82;;
10116;SDS011;5098;48.792;9.012;2023-02-08T03:02:27;10.60;;;8.05;;
10116;SDS011;5098;48.792;9.012;2023-02-08T03:04:55;12.70;;;8.48;;
10116;SDS011;5098;48.792;9.012;2023-02-08T03:20:37;11.65;;;7.80;;
10116;SDS011;5098;48.792;9.012;2023-02-08T03:23:18;10.93;;;9.05;;
10116;SDS011;5098;48.792;9.012;2023-02-08T03:25:49;13.30;;;8.40;;
10116;SDS011;5098;48.792;9.012;2023-02-08T03:30:48;11.70;;;8.70;;
10116;SDS011;5098;48.792;9.012;2023-02-08T03:33:29;13.15;;;7.70;;
10116;SDS011;5098;48.792;9.012;2023-02-08T03:36:43;15.50;;;8.40;;
10116;SDS011;5098;48.792;9.012;2023-02-08T03:38:43;11.45;;;8.05;;
10116;SDS011;5098;48.792;9.012;2023-02-08T03:41:12;12.88;;;9.13;;
10116;SDS011;5098;48.792;9.012;2023-02-08T03:43:41;11.15;;;8.30;;
10116;SDS011;5098;48.792;9.012;2023-02-08T03:46:16;12.57;;;9.57;;
10116;SDS011;5098;48.792;9.012;2023-02-08T03:48:48;14.70;;;9.43;;
10116;SDS011;5098;48.792;9.012;2023-02-08T03:51:16;18.27;;;11.00;;
10116;SDS011;5098;48.792;9.012;2023-02-08T03:53:44;16.20;;;10.50;;
10116;SDS011;5098;48.792;9.012;2023-02-08T03:56:13;14.27;;;10.07;;
10116;SDS011;5098;48.792;9.012;2023-02-08T03:58:43;14.65;;;9.45;;
10116;SDS011;5098;48.792;9.012;2023-02-08T04:01:15;11.00;;;8.45;;
10116;SDS011;5098;48.792;9.012;2023-02-08T04:03:41;12.88;;;9.43;;
10116;SDS011;5098;48.792;9.012;2023-02-08T04:06:09;12.38;;;9.27;;
10116;SDS011;5098;48.792;9.012;2023-02-08T04:08:35;11.13;;;8.27;;
10116;SDS011;5098;48.792;9.012;2023-02-08T04:11:01;11.40;;;8.23;;
10116;SDS011;5098;48.792;9.012;2023-02-08T04:13:27;13.57;;;8.77;;
10116;SDS011;5098;48.792;9.012;2023-02-08T04:15:53;11.60;;;7.75;;
10116;SDS011;5098;48.792;9.012;2023-02-08T04:18:19;14.52;;;8.63;;
10116;SDS011;5098;48.792;9.012;2023-02-08T04:20:45;14.23;;;7.95;;
10116;SDS011;5098;48.792;9.012;2023-02-08T04:23:11;13.38;;;8.25;;
10116;SDS011;5098;48.792;9.012;2023-02-08T04:25:37;12.25;;;7.35;;
10116;SDS011;5098;48.792;9.012;2023-02-08T04:28:03;13.40;;;7.80;;
10116;SDS011;5098;48.792;9.012;2023-02-08T04:30:29;10.48;;;7.97;;
10116;SDS011;5098;48.792;9.012;2023-02-08T04:32:55;10.50;;;7.63;;
10116;SDS011;5098;48.792;9.012;2023-02-08T04:35:24;15.95;;;8.77;;
10116;SDS011;5098;48.792;9.012;2023-02-08T04:37:50;11.45;;;7.88;;
10116;SDS011;5098;48.792;9.012;2023-02-08T04:40:16;12.05;;;8.38;;
10116;SDS011;5098;48.792;9.012;2023-02-08T04:42:42;15.35;;;9.20;;
10116;SDS011;5098;48.792;9.012;2023-02-08T04:45:08;12.40;;;8.10;;
10116;SDS011;5098;48.792;9.012;2023-02-08T04:47:34;15.57;;;8.43;;
10116;SDS011;5098;48.792;9.012;2023-02-08T04:50:00;12.00;;;8.88;;
10116;SDS011;5098;48.792;9.012;2023-02-08T04:52:27;12.43;;;8.32;;
10116;SDS011;5098;48.792;9.012;2023-02-08T04:54:53;13.50;;;9.60;;
10116;SDS011;5098;48.792;9.012;2023-02-08T04:57:19;12.60;;;9.73;;
10116;SDS011;5098;48.792;9.012;2023-02-08T04:59:45;13.65;;;9.20;;
10116;SDS011;5098;48.792;9.012;2023-02-08T05:02:11;14.35;;;9.38;;
10116;SDS011;5098;48.792;9.012;2023-02-08T05:04:37;14.32;;;9.07;;
10116;SDS011;5098;48.792;9.012;2023-02-08T05:07:03;12.23;;;9.30;;
10116;SDS011;5098;48.792;9.012;2023-02-08T05:09:29;13.82;;;9.50;;
10116;SDS011;5098;48.792;9.012;2023-02-08T05:11:55;14.45;;;9.35;;
10116;SDS011;5098;48.792;9.012;2023-02-08T05:14:21;11.45;;;8.30;;
10116;SDS011;5098;48.792;9.012;2023-02-08T05:16:47;12.57;;;9.10;;
10116;SDS011;5098;48.792;9.012;2023-02-08T05:19:13;13.55;;;8.95;;
10116;SDS011;5098;48.792;9.012;2023-02-08T05:21:39;16.55;;;9.52;;
10116;SDS011;5098;48.792;9.012;2023-02-08T05:24:05;15.85;;;9.32;;
10116;SDS011;5098;48.792;9.012;2023-02-08T05:26:31;11.05;;;8.75;;
10116;SDS011;5098;48.792;9.012;2023-02-08T05:28:57;13.32;;;8.35;;
10116;SDS011;5098;48.792;9.012;2023-02-08T05:31:24;11.07;;;7.75;;
10116;SDS011;5098;48.792;9.012;2023-02-08T05:33:50;13.63;;;8.93;;
10116;SDS011;5098;48.792;9.012;2023-02-08T05:36:17;12.90;;;9.00;;
10116;SDS011;5098;48.792;9.012;2023-02-08T05:38:44;15.95;;;9.52;;
10116;SDS011;5098;48.792;9.012;2023-02-08T05:41:10;17.25;;;11.00;;
10116;SDS011;5098;48.792;9.012;2023-02-08T05:43:36;14.38;;;11.07;;
10116;SDS011;5098;48.792;9.012;2023-02-08T05:46:02;19.13;;;10.15;;
10116;SDS011;5098;48.792;9.012;2023-02-08T05:48:31;16.67;;;9.45;;
10116;SDS011;5098;48.792;9.012;2023-02-08T05:50:57;13.15;;;9.07;;
10116;SDS011;5098;48.792;9.012;2023-02-08T05:53:24;23.88;;;14.35;;
10116;SDS011;5098;48.792;9.012;2023-02-08T05:55:51;21.42;;;12.52;;
10116;SDS011;5098;48.792;9.012;2023-02-08T05:58:17;21.85;;;13.05;;
10116;SDS011;5098;48.792;9.012;2023-02-08T06:00:43;17.55;;;11.18;;
10116;SDS011;5098;48.792;9.012;2023-02-08T06:03:09;18.23;;;10.80;;
10116;SDS011;5098;48.792;9.012;2023-02-08T06:05:36;16.42;;;10.40;;
10116;SDS011;5098;48.792;9.012;2023-02-08T06:08:03;15.95;;;11.52;;
10116;SDS011;5098;48.792;9.012;2023-02-08T06:10:29;16.60;;;10.05;;
10116;SDS011;5098;48.792;9.012;2023-02-08T06:12:55;12.90;;;9.88;;
10116;SDS011;5098;48.792;9.012;2023-02-08T06:15:21;16.70;;;10.27;;
10116;SDS011;5098;48.792;9.012;2023-02-08T06:17:48;16.75;;;11.80;;
10116;SDS011;5098;48.792;9.012;2023-02-08T06:20:14;13.45;;;9.15;;
10116;SDS011;5098;48.792;9.012;2023-02-08T06:22:40;13.35;;;10.57;;
10116;SDS011;5098;48.792;9.012;2023-02-08T06:25:06;15.18;;;11.77;;
10116;SDS011;5098;48.792;9.012;2023-02-08T06:27:32;14.13;;;11.30;;
10116;SDS011;5098;48.792;9.012;2023-02-08T06:29:58;21.95;;;12.52;;
10116;SDS011;5098;48.792;9.012;2023-02-08T06:32:24;15.23;;;11.18;;
10116;SDS011;5098;48.792;9.012;2023-02-08T06:34:50;17.70;;;11.80;;
10116;SDS011;5098;48.792;9.012;2023-02-08T06:37:16;18.35;;;12.27;;
10116;SDS011;5098;48.792;9.012;2023-02-08T06:39:43;18.45;;;12.45;;
10116;SDS011;5098;48.792;9.012;2023-02-08T06:42:09;19.52;;;12.95;;
10116;SDS011;5098;48.792;9.012;2023-02-08T06:44:35;16.52;;;12.70;;
10116;SDS011;5098;48.792;9.012;2023-02-08T06:47:01;16.55;;;11.57;;
10116;SDS011;5098;48.792;9.012;2023-02-08T06:49:27;17.70;;;11.77;;
10116;SDS011;5098;48.792;9.012;2023-02-08T06:51:53;15.23;;;10.48;;
10116;SDS011;5098;48.792;9.012;2023-02-08T06:54:20;19.80;;;13.50;;
10116;SDS011;5098;48.792;9.012;2023-02-08T06:56:46;22.65;;;12.18;;
10116;SDS011;5098;48.792;9.012;2023-02-08T06:59:12;23.88;;;15.80;;
10116;SDS011;5098;48.792;9.012;2023-02-08T07:01:38;21.10;;;14.02;;
10116;SDS011;5098;48.792;9.012;2023-02-08T07:04:04;25.42;;;14.15;;
10116;SDS011;5098;48.792;9.012;2023-02-08T07:06:30;22.60;;;15.18;;
10116;SDS011;5098;48.792;9.012;2023-02-08T07:08:56;22.17;;;13.90;;
10116;SDS011;5098;48.792;9.012;2023-02-08T07:11:22;26.08;;;14.93;;
10116;SDS011;5098;48.792;9.012;2023-02-08T07:13:49;21.42;;;13.20;;
10116;SDS011;5098;48.792;9.012;2023-02-08T07:16:16;26.05;;;14.85;;
10116;SDS011;5098;48.792;9.012;2023-02-08T07:18:42;22.38;;;13.85;;
10116;SDS011;5098;48.792;9.012;2023-02-08T07:21:08;18.38;;;11.75;;
10116;SDS011;5098;48.792;9.012;2023-02-08T07:23:36;18.15;;;12.85;;
10116;SDS011;5098;48.792;9.012;2023-02-08T07:26:06;17.75;;;14.18;;
10116;SDS011;5098;48.792;9.012;2023-02-08T07:28:33;21.35;;;14.00;;
10116;SDS011;5098;48.792;9.012;2023-02-08T07:31:03;19.95;;;11.88;;
10116;SDS011;5098;48.792;9.012;2023-02-08T07:33:29;15.85;;;12.57;;
10116;SDS011;5098;48.792;9.012;2023-02-08T07:35:55;17.00;;;12.77;;
10116;SDS011;5098;48.792;9.012;2023-02-08T07:38:21;18.85;;;13.30;;
10116;SDS011;5098;48.792;9.012;2023-02-08T07:40:47;16.83;;;12.43;;
10116;SDS011;5098;48.792;9.012;2023-02-08T07:43:13;17.27;;;12.13;;
10116;SDS011;5098;48.792;9.012;2023-02-08T07:45:39;17.13;;;12.07;;
10116;SDS011;5098;48.792;9.012;2023-02-08T07:48:05;14.50;;;11.25;;
10116;SDS011;5098;48.792;9.012;2023-02-08T07:50:32;13.82;;;11.65;;
10116;SDS011;5098;48.792;9.012;2023-02-08T07:52:58;12.73;;;10.10;;
10116;SDS011;5098;48.792;9.012;2023-02-08T07:55:24;18.20;;;11.30;;
10116;SDS011;5098;48.792;9.012;2023-02-08T07:57:51;15.68;;;9.73;;
10116;SDS011;5098;48.792;9.012;2023-02-08T08:00:19;14.57;;;10.45;;
10116;SDS011;5098;48.792;9.012;2023-02-08T08:02:46;13.70;;;11.30;;
10116;SDS011;5098;48.792;9.012;2023-02-08T08:05:14;16.70;;;11.88;;
10116;SDS011;5098;48.792;9.012;2023-02-08T08:07:40;15.75;;;10.88;;
10116;SDS011;5098;48.792;9.012;2023-02-08T08:10:06;15.10;;;11.70;;
10116;SDS011;5098;48.792;9.012;2023-02-08T08:12:32;14.93;;;11.27;;
10116;SDS011;5098;48.792;9.012;2023-02-08T08:14:58;17.20;;;13.30;;
10116;SDS011;5098;48.792;9.012;2023-02-08T08:17:24;15.70;;;13.10;;
10116;SDS011;5098;48.792;9.012;2023-02-08T08:19:50;17.30;;;12.90;;
10116;SDS011;5098;48.792;9.012;2023-02-08T08:22:16;16.87;;;15.10;;
10116;SDS011;5098;48.792;9.012;2023-02-08T08:24:42;20.40;;;14.50;;
10116;SDS011;5098;48.792;9.012;2023-02-08T08:27:09;15.03;;;13.53;;
10116;SDS011;5098;48.792;9.012;2023-02-08T08:29:35;17.40;;;11.97;;
10116;SDS011;5098;48.792;9.012;2023-02-08T08:32:02;13.20;;;11.03;;
10116;SDS011;5098;48.792;9.012;2023-02-08T08:34:28;15.20;;;11.07;;
10116;SDS011;5098;48.792;9.012;2023-02-08T08:36:55;12.23;;;10.50;;
10116;SDS011;5098;48.792;9.012;2023-02-08T08:39:21;15.37;;;10.97;;
10116;SDS011;5098;48.792;9.012;2023-02-08T08:41:47;15.57;;;11.50;;
10116;SDS011;5098;48.792;9.012;2023-02-08T08:44:14;12.90;;;10.35;;
10116;SDS011;5098;48.792;9.012;2023-02-08T08:46:41;14.02;;;11.95;;
10116;SDS011;5098;48.792;9.012;2023-02-08T08:49:07;14.45;;;11.30;;
10116;SDS011;5098;48.792;9.012;2023-02-08T08:51:33;13.73;;;10.40;;
10116;SDS011;5098;48.792;9.012;2023-02-08T08:54:00;13.40;;;10.10;;
10116;SDS011;5098;48.792;9.012;2023-02-08T08:56:26;12.70;;;9.88;;
10116;SDS011;5098;48.792;9.012;2023-02-08T08:58:52;14.85;;;10.77;;
10116;SDS011;5098;48.792;9.012;2023-02-08T09:01:18;14.25;;;10.50;;
10116;SDS011;5098;48.792;9.012;2023-02-08T09:03:44;12.93;;;9.90;;
10116;SDS011;5098;48.792;9.012;2023-02-08T09:06:10;13.27;;;10.35;;
10116;SDS011;5098;48.792;9.012;2023-02-08T09:08:37;17.35;;;11.32;;
10116;SDS011;5098;48.792;9.012;2023-02-08T09:11:04;14.88;;;10.18;;
10116;SDS011;5098;48.792;9.012;2023-02-08T09:13:30;14.50;;;10.00;;
10116;SDS011;5098;48.792;9.012;2023-02-08T09:15:56;13.30;;;10.70;;
10116;SDS011;5098;48.792;9.012;2023-02-08T09:18:22;12.88;;;9.82;;
10116;SDS011;5098;48.792;9.012;2023-02-08T09:20:48;10.32;;;9.15;;
10116;SDS011;5098;48.792;9.012;2023-02-08T09:23:14;14.52;;;9.43;;
10116;SDS011;5098;48.792;9.012;2023-02-08T09:25:40;16.85;;;9.13;;
10116;SDS011;5098;48.792;9.012;2023-02-08T09:28:06;12.40;;;9.90;;
10116;SDS011;5098;48.792;9.012;2023-02-08T09:30:32;12.13;;;9.30;;
10116;SDS011;5098;48.792;9.012;2023-02-08T09:32:58;13.52;;;8.85;;
10116;SDS011;5098;48.792;9.012;2023-02-08T09:35:24;14.00;;;9.82;;
10116;SDS011;5098;48.792;9.012;2023-02-08T09:37:54;16.58;;;10.18;;
10116;SDS011;5098;48.792;9.012;2023-02-08T09:40:23;12.00;;;8.70;;
10116;SDS011;5098;48.792;9.012;2023-02-08T09:43:03;13.07;;;9.55;;
10116;SDS011;5098;48.792;9.012;2023-02-08T09:45:37;15.05;;;9.80;;
10116;SDS011;5098;48.792;9.012;2023-02-08T09:50:41;16.33;;;10.70;;
10116;SDS011;5098;48.792;9.012;2023-02-08T09:55:40;13.77;;;9.50;;
10116;SDS011;5098;48.792;9.012;2023-02-08T09:58:28;13.93;;;9.15;;
10116;SDS011;5098;48.792;9.012;2023-02-08T10:00:55;16.52;;;9.82;;
10116;SDS011;5098;48.792;9.012;2023-02-08T10:03:38;12.05;;;8.63;;
10116;SDS011;5098;48.792;9.012;2023-02-08T10:06:08;12.83;;;9.53;;
10116;SDS011;5098;48.792;9.012;2023-02-08T10:08:35;13.90;;;9.80;;
10116;SDS011;5098;48.792;9.012;2023-02-08T10:13:38;18.63;;;9.50;;
10116;SDS011;5098;48.792;9.012;2023-02-08T10:16:23;13.57;;;9.60;;
10116;SDS011;5098;48.792;9.012;2023-02-08T10:21:55;14.27;;;10.37;;
10116;SDS011;5098;48.792;9.012;2023-02-08T10:29:54;12.07;;;10.03;;
10116;SDS011;5098;48.792;9.012;2023-02-08T10:32:38;13.40;;;10.20;;
10116;SDS011;5098;48.792;9.012;2023-02-08T10:35:14;15.87;;;11.33;;
10116;SDS011;5098;48.792;9.012;2023-02-08T10:37:42;15.70;;;11.20;;
10116;SDS011;5098;48.792;9.012;2023-02-08T10:40:14;15.80;;;11.20;;
10116;SDS011;5098;48.792;9.012;2023-02-08T10:42:46;15.73;;;11.50;;
10116;SDS011;5098;48.792;9.012;2023-02-08T10:45:14;13.10;;;10.00;;
10116;SDS011;5098;48.792;9.012;2023-02-08T10:47:43;13.07;;;10.47;;
10116;SDS011;5098;48.792;9.012;2023-02-08T10:50:14;13.73;;;11.60;;
10116;SDS011;5098;48.792;9.012;2023-02-08T10:52:43;19.70;;;11.53;;
10116;SDS011;5098;48.792;9.012;2023-02-08T10:55:16;13.93;;;10.57;;
10116;SDS011;5098;48.792;9.012;2023-02-08T10:57:43;17.47;;;11.53;;
10116;SDS011;5098;48.792;9.012;2023-02-08T11:00:23;16.53;;;11.13;;
10116;SDS011;5098;48.792;9.012;2023-02-08T11:02:51;14.07;;;9.60;;
10116;SDS011;5098;48.792;9.012;2023-02-08T11:07:43;13.73;;;11.67;;
10116;SDS011;5098;48.792;9.012;2023-02-08T11:12:58;14.53;;;11.10;;
10116;SDS011;5098;48.792;9.012;2023-02-08T11:15:26;13.33;;;11.00;;
10116;SDS011;5098;48.792;9.012;2023-02-08T11:17:56;18.93;;;12.20;;
10116;SDS011;5098;48.792;9.012;2023-02-08T11:20:25;14.50;;;9.63;;
10116;SDS011;5098;48.792;9.012;2023-02-08T11:22:52;13.23;;;10.20;;
10116;SDS011;5098;48.792;9.012;2023-02-08T11:25:32;12.63;;;9.20;;
10116;SDS011;5098;48.792;9.012;2023-02-08T11:27:59;12.33;;;10.33;;
10116;SDS011;5098;48.792;9.012;2023-02-08T11:30:25;12.00;;;10.63;;
10116;SDS011;5098;48.792;9.012;2023-02-08T11:35:36;12.20;;;9.70;;
10116;SDS011;5098;48.792;9.012;2023-02-08T11:38:02;14.93;;;10.10;;
10116;SDS011;5098;48.792;9.012;2023-02-08T11:40:31;14.83;;;10.17;;
10116;SDS011;5098;48.792;9.012;2023-02-08T11:42:59;11.80;;;9.47;;
10116;SDS011;5098;48.792;9.012;2023-02-08T11:45:29;19.20;;;10.00;;
10116;SDS011;5098;48.792;9.012;2023-02-08T11:47:56;15.40;;;10.47;;
10116;SDS011;5098;48.792;9.012;2023-02-08T11:52:56;11.43;;;9.80;;
10116;SDS011;5098;48.792;9.012;2023-02-08T11:55:24;14.60;;;10.67;;
10116;SDS011;5098;48.792;9.012;2023-02-08T12:00:19;12.00;;;9.43;;
10116;SDS011;5098;48.792;9.012;2023-02-08T12:02:45;19.03;;;9.87;;
10116;SDS011;5098;48.792;9.012;2023-02-08T12:05:12;10.60;;;9.50;;
10116;SDS011;5098;48.792;9.012;2023-02-08T12:12:45;14.20;;;9.77;;
10116;SDS011;5098;48.792;9.012;2023-02-08T12:20:13;15.37;;;10.43;;
10116;SDS011;5098;48.792;9.012;2023-02-08T12:22:56;13.97;;;9.60;;
10116;SDS011;5098;48.792;9.012;2023-02-08T12:28:25;17.70;;;12.80;;
10116;SDS011;5098;48.792;9.012;2023-02-08T12:33:33;10.60;;;9.50;;
10116;SDS011;5098;48.792;9.012;2023-02-08T12:41:29;14.90;;;12.00;;
10116;SDS011;5098;48.792;9.012;2023-02-08T12:49:16;11.73;;;8.80;;
10116;SDS011;5098;48.792;9.012;2023-02-08T12:51:54;12.33;;;8.80;;
10116;SDS011;5098;48.792;9.012;2023-02-08T12:57:23;12.53;;;9.00;;
10116;SDS011;5098;48.792;9.012;2023-02-08T12:59:51;11.43;;;9.30;;
10116;SDS011;5098;48.792;9.012;2023-02-08T13:02:20;12.53;;;8.43;;
10116;SDS011;5098;48.792;9.012;2023-02-08T13:04:51;10.67;;;7.07;;
10116;SDS011;5098;48.792;9.012;2023-02-08T13:07:20;8.20;;;6.60;;
10116;SDS011;5098;48.792;9.012;2023-02-08T13:09:51;8.43;;;6.67;;
10116;SDS011;5098;48.792;9.012;2023-02-08T13:12:23;9.70;;;8.07;;
10116;SDS011;5098;48.792;9.012;2023-02-08T13:18:20;9.37;;;6.70;;
10116;SDS011;5098;48.792;9.012;2023-02-08T13:23:14;7.77;;;6.07;;
10116;SDS011;5098;48.792;9.012;2023-02-08T13:25:41;9.03;;;6.77;;
10116;SDS011;5098;48.792;9.012;2023-02-08T13:28:11;8.27;;;7.30;;
10116;SDS011;5098;48.792;9.012;2023-02-08T13:30:42;9.30;;;5.63;;
10116;SDS011;5098;48.792;9.012;2023-02-08T13:33:13;7.43;;;6.20;;
10116;SDS011;5098;48.792;9.012;2023-02-08T13:35:40;8.97;;;6.33;;
10116;SDS011;5098;48.792;9.012;2023-02-08T13:38:16;8.57;;;6.87;;
10116;SDS011;5098;48.792;9.012;2023-02-08T13:40:43;12.80;;;9.50;;
10116;SDS011;5098;48.792;9.012;2023-02-08T13:45:42;8.63;;;6.40;;
10116;SDS011;5098;48.792;9.012;2023-02-08T13:48:10;7.30;;;5.50;;
10116;SDS011;5098;48.792;9.012;2023-02-08T13:50:55;7.20;;;6.30;;
10116;SDS011;5098;48.792;9.012;2023-02-08T13:56:03;7.43;;;6.00;;
10116;SDS011;5098;48.792;9.012;2023-02-08T14:01:16;6.90;;;6.13;;
10116;SDS011;5098;48.792;9.012;2023-02-08T14:03:42;39.30;;;27.83;;
10116;SDS011;5098;48.792;9.012;2023-02-08T14:06:21;15.33;;;10.03;;
10116;SDS011;5098;48.792;9.012;2023-02-08T14:11:25;9.27;;;6.60;;
10116;SDS011;5098;48.792;9.012;2023-02-08T14:13:57;7.43;;;6.17;;
10116;SDS011;5098;48.792;9.012;2023-02-08T14:18:57;8.30;;;5.90;;
10116;SDS011;5098;48.792;9.012;2023-02-08T14:24:27;7.30;;;5.43;;
10116;SDS011;5098;48.792;9.012;2023-02-08T14:26:45;8.17;;;4.57;;
10116;SDS011;5098;48.792;9.012;2023-02-08T14:29:18;8.63;;;4.83;;
10116;SDS011;5098;48.792;9.012;2023-02-08T14:31:46;5.20;;;4.53;;
10116;SDS011;5098;48.792;9.012;2023-02-08T14:34:25;7.23;;;5.80;;
10116;SDS011;5098;48.792;9.012;2023-02-08T14:37:00;7.17;;;5.60;;
10116;SDS011;5098;48.792;9.012;2023-02-08T14:39:27;7.27;;;5.60;;
10116;SDS011;5098;48.792;9.012;2023-02-08T14:41:55;6.80;;;4.78;;
10116;SDS011;5098;48.792;9.012;2023-02-08T14:47:10;6.17;;;5.50;;
10116;SDS011;5098;48.792;9.012;2023-02-08T14:49:38;7.77;;;6.00;;
10116;SDS011;5098;48.792;9.012;2023-02-08T14:52:09;7.73;;;5.90;;
10116;SDS011;5098;48.792;9.012;2023-02-08T14:54:45;5.13;;;4.57;;
10116;SDS011;5098;48.792;9.012;2023-02-08T14:57:27;8.27;;;5.00;;
10116;SDS011;5098;48.792;9.012;2023-02-08T14:59:57;9.10;;;6.10;;
10116;SDS011;5098;48.792;9.012;2023-02-08T15:02:23;8.55;;;5.60;;
10116;SDS011;5098;48.792;9.012;2023-02-08T15:04:55;11.00;;;6.57;;
10116;SDS011;5098;48.792;9.012;2023-02-08T15:09:47;6.57;;;5.50;;
10116;SDS011;5098;48.792;9.012;2023-02-08T15:14:40;9.30;;;6.10;;
10116;SDS011;5098;48.792;9.012;2023-02-08T15:17:13;10.10;;;6.77;;
10116;SDS011;5098;48.792;9.012;2023-02-08T15:19:44;8.20;;;6.20;;
10116;SDS011;5098;48.792;9.012;2023-02-08T15:24:59;13.63;;;7.10;;
10116;SDS011;5098;48.792;9.012;2023-02-08T15:27:29;8.98;;;6.35;;
10116;SDS011;5098;48.792;9.012;2023-02-08T15:29:56;9.80;;;6.50;;
10116;SDS011;5098;48.792;9.012;2023-02-08T15:32:23;9.18;;;6.75;;
10116;SDS011;5098;48.792;9.012;2023-02-08T15:34:54;10.52;;;7.32;;
10116;SDS011;5098;48.792;9.012;2023-02-08T15:37:20;8.50;;;5.97;;
10116;SDS011;5098;48.792;9.012;2023-02-08T15:39:51;8.25;;;6.55;;
10116;SDS011;5098;48.792;9.012;2023-02-08T15:42:19;10.43;;;6.22;;
10116;SDS011;5098;48.792;9.012;2023-02-08T15:44:46;7.60;;;6.40;;
10116;SDS011;5098;48.792;9.012;2023-02-08T15:47:14;13.10;;;7.68;;
10116;SDS011;5098;48.792;9.012;2023-02-08T15:49:45;9.15;;;6.80;;
10116;SDS011;5098;48.792;9.012;2023-02-08T15:52:15;9.38;;;6.75;;
10116;SDS011;5098;48.792;9.012;2023-02-08T15:54:42;7.82;;;6.05;;
10116;SDS011;5098;48.792;9.012;2023-02-08T15:57:19;8.40;;;6.70;;
10116;SDS011;5098;48.792;9.012;2023-02-08T15:59:47;11.35;;;7.03;;
10116;SDS011;5098;48.792;9.012;2023-02-08T16:04:43;10.57;;;6.00;;
10116;SDS011;5098;48.792;9.012;2023-02-08T16:07:18;14.43;;;7.80;;
10116;SDS011;5098;48.792;9.012;2023-02-08T16:09:46;8.90;;;7.07;;
10116;SDS011;5098;48.792;9.012;2023-02-08T16:12:18;11.25;;;7.15;;
10116;SDS011;5098;48.792;9.012;2023-02-08T16:14:44;10.20;;;7.13;;
10116;SDS011;5098;48.792;9.012;2023-02-08T16:17:27;11.75;;;7.90;;
10116;SDS011;5098;48.792;9.012;2023-02-08T16:19:55;11.35;;;7.70;;
10116;SDS011;5098;48.792;9.012;2023-02-08T16:22:23;10.75;;;7.60;;
10116;SDS011;5098;48.792;9.012;2023-02-08T16:24:49;10.35;;;7.88;;
10116;SDS011;5098;48.792;9.012;2023-02-08T16:27:25;11.07;;;7.90;;
10116;SDS011;5098;48.792;9.012;2023-02-08T16:29:52;9.95;;;7.68;;
10116;SDS011;5098;48.792;9.012;2023-02-08T16:32:21;14.52;;;8.32;;
10116;SDS011;5098;48.792;9.012;2023-02-08T16:34:49;14.93;;;9.43;;
10116;SDS011;5098;48.792;9.012;2023-02-08T16:37:28;14.95;;;11.48;;
10116;SDS011;5098;48.792;9.012;2023-02-08T16:39:58;12.15;;;9.60;;
10116;SDS011;5098;48.792;9.012;2023-02-08T16:45:01;18.45;;;10.45;;
10116;SDS011;5098;48.792;9.012;2023-02-08T16:47:35;13.85;;;8.88;;
10116;SDS011;5098;48.792;9.012;2023-02-08T16:50:02;19.00;;;10.98;;
10116;SDS011;5098;48.792;9.012;2023-02-08T16:52:28;14.02;;;11.23;;
10116;SDS011;5098;48.792;9.012;2023-02-08T16:54:54;16.15;;;9.85;;
10116;SDS011;5098;48.792;9.012;2023-02-08T16:57:20;16.13;;;10.70;;
10116;SDS011;5098;48.792;9.012;2023-02-08T16:59:46;16.35;;;10.45;;